createdAt,value
2023-02-25T00:03:33.858Z,-4.93
2023-02-25T00:08:36.641Z,-4.95
2023-02-25T00:13:41.578Z,-5.00
2023-02-25T00:18:47.261Z,-4.90
2023-02-25T00:23:50.752Z,-4.86
2023-02-25T00:28:53.406Z,-4.86
2023-02-25T00:33:55.961Z,-4.79
2023-02-25T00:38:58.384Z,-4.81
2023-02-25T00:44:02.571Z,-4.73
2023-02-25T00:49:05.057Z,-4.65
2023-02-25T00:54:08.033Z,-4.64
2023-02-25T00:59:10.635Z,-4.73
2023-02-25T01:04:13.285Z,-4.81
2023-02-25T01:09:16.263Z,-4.87
2023-02-25T01:14:21.905Z,-4.91
2023-02-25T01:19:26.368Z,-4.90
2023-02-25T01:24:31.410Z,-4.89
2023-02-25T01:29:40.519Z,-4.89
2023-02-25T01:34:44.638Z,-4.86
2023-02-25T01:39:47.104Z,-4.95
2023-02-25T01:45:23.516Z,-4.84
2023-02-25T01:50:31.628Z,-4.81
2023-02-25T01:55:34.566Z,-4.88
2023-02-25T02:00:38.740Z,-5.01
2023-02-25T02:05:50.343Z,-4.98
2023-02-25T02:10:53.155Z,-5.02
2023-02-25T02:16:18.579Z,-5.09
2023-02-25T02:22:00.795Z,-5.11
2023-02-25T02:27:15.135Z,-5.04
2023-02-25T02:32:36.468Z,-4.98
2023-02-25T02:37:58.735Z,-4.88
2023-02-25T02:43:33.029Z,-4.90
2023-02-25T02:48:41.888Z,-4.91
2023-02-25T02:53:51.083Z,-4.97
2023-02-25T02:59:01.502Z,-4.82
2023-02-25T03:04:09.465Z,-4.89
2023-02-25T03:09:31.182Z,-4.85
2023-02-25T03:14:34.146Z,-4.89
2023-02-25T03:19:42.151Z,-4.94
2023-02-25T03:25:10.885Z,-4.97
2023-02-25T03:30:20.787Z,-5.06
2023-02-25T03:35:24.689Z,-5.09
2023-02-25T03:40:28.266Z,-5.12
2023-02-25T03:45:33.099Z,-5.11
2023-02-25T03:50:41.424Z,-5.11
2023-02-25T03:55:47.260Z,-5.13
2023-02-25T04:00:56.683Z,-5.16
2023-02-25T04:06:00.663Z,-5.11
2023-02-25T04:11:03.335Z,-5.01
2023-02-25T04:16:06.618Z,-4.71
2023-02-25T04:21:10.553Z,-4.18
2023-02-25T04:26:13.009Z,-3.89
2023-02-25T04:31:15.856Z,-3.66
2023-02-25T04:36:30.956Z,-3.60
2023-02-25T04:41:35.785Z,-3.47
2023-02-25T04:46:40.979Z,-3.40
2023-02-25T04:51:43.562Z,-3.21
2023-02-25T04:56:46.088Z,-3.31
2023-02-25T05:01:48.645Z,-3.15
2023-02-25T05:06:51.218Z,-3.16
2023-02-25T05:11:53.793Z,-3.15
2023-02-25T05:16:56.848Z,-3.14
2023-02-25T05:21:59.358Z,-2.84
2023-02-25T05:27:08.802Z,-2.72
2023-02-25T05:32:11.421Z,-2.51
2023-02-25T05:37:14.099Z,-2.27
2023-02-25T05:42:16.558Z,-2.39
2023-02-25T05:47:19.265Z,-2.37
2023-02-25T05:52:21.859Z,-2.27
2023-02-25T05:57:24.375Z,-2.16
2023-02-25T06:02:26.992Z,-2.08
2023-02-25T06:07:31.922Z,-2.21
2023-02-25T06:12:34.746Z,-1.98
2023-02-25T06:17:37.281Z,-1.93
2023-02-25T06:22:39.836Z,-1.68
2023-02-25T06:27:42.315Z,-1.61
2023-02-25T06:32:44.899Z,-1.48
2023-02-25T06:37:47.364Z,-1.32
2023-02-25T06:42:49.812Z,-0.92
2023-02-25T06:47:52.334Z,-0.94
2023-02-25T06:52:54.895Z,-0.66
2023-02-25T06:57:57.404Z,-1.19
2023-02-25T07:03:03.271Z,-0.91
2023-02-25T07:08:09.108Z,-0.60
2023-02-25T07:13:12.753Z,-0.65
2023-02-25T07:18:16.481Z,-0.46
2023-02-25T07:23:20.500Z,-0.18
2023-02-25T07:28:23.086Z,-0.03
2023-02-25T07:33:25.722Z,0.09
2023-02-25T07:38:28.638Z,0.30
2023-02-25T07:43:33.759Z,0.36
2023-02-25T07:48:42.314Z,0.61
2023-02-25T07:54:07.325Z,1.27
2023-02-25T07:59:13.048Z,1.35
2023-02-25T08:04:18.492Z,1.67
2023-02-25T08:09:28.713Z,2.11
2023-02-25T08:14:34.144Z,2.99
2023-02-25T08:20:01.282Z,4.06
2023-02-25T08:25:41.361Z,4.12
2023-02-25T08:31:05.187Z,4.54
2023-02-25T08:36:35.564Z,4.67
2023-02-25T08:42:31.865Z,4.70
2023-02-25T08:47:45.166Z,4.46
2023-02-25T08:52:54.856Z,4.64
2023-02-25T09:04:56.678Z,5.59
2023-02-25T09:10:10.545Z,6.34
2023-02-25T09:15:22.608Z,6.50
2023-02-25T09:20:49.002Z,6.53
2023-02-25T09:25:52.734Z,6.75
2023-02-25T09:30:58.402Z,6.75
2023-02-25T09:36:08.833Z,6.71
2023-02-25T09:41:33.716Z,6.59
2023-02-25T09:46:41.862Z,6.58
2023-02-25T09:51:52.764Z,6.36
2023-02-25T09:57:02.449Z,5.95
2023-02-25T10:02:37.154Z,5.03
2023-02-25T10:07:54.873Z,4.70
2023-02-25T10:13:18.518Z,4.43
2023-02-25T10:18:50.126Z,4.08
2023-02-25T10:23:53.209Z,3.82
2023-02-25T10:29:13.306Z,3.81
2023-02-25T10:34:32.908Z,4.36
2023-02-25T10:39:40.731Z,4.43
2023-02-25T10:44:46.768Z,4.41
2023-02-25T10:50:23.037Z,4.31
2023-02-25T10:55:41.578Z,4.06
2023-02-25T11:00:45.756Z,3.93
2023-02-25T11:05:49.116Z,3.85
2023-02-25T11:11:16.630Z,3.52
2023-02-25T11:16:20.539Z,3.42
2023-02-25T11:21:40.464Z,3.51
2023-02-25T11:26:50.202Z,3.55
2023-02-25T11:31:59.823Z,3.64
2023-02-25T11:37:36.299Z,3.46
2023-02-25T11:42:40.617Z,3.44
2023-02-25T11:47:43.522Z,3.66
2023-02-25T11:53:03.345Z,3.67
2023-02-25T11:58:45.783Z,3.48
2023-02-25T12:04:12.814Z,3.53
2023-02-25T12:09:37.791Z,3.49
2023-02-25T12:14:58.920Z,3.22
2023-02-25T12:20:32.718Z,3.30
2023-02-25T12:25:37.109Z,3.25
2023-02-25T12:30:57.956Z,3.52
2023-02-25T12:36:10.237Z,3.67
2023-02-25T12:41:16.671Z,3.64
2023-02-25T12:46:27.796Z,3.50
2023-02-25T12:51:52.621Z,3.54
2023-02-25T12:57:38.124Z,3.58
2023-02-25T13:03:03.893Z,3.52
2023-02-25T13:08:06.282Z,3.38
2023-02-25T13:13:36.243Z,3.25
2023-02-25T13:24:54.081Z,3.27
2023-02-25T13:30:42.089Z,3.10
2023-02-25T13:35:45.592Z,3.14
2023-02-25T13:48:39.985Z,3.14
2023-02-25T13:54:07.921Z,3.12
2023-02-25T13:59:33.396Z,3.21
2023-02-25T14:04:47.840Z,3.24
2023-02-25T14:10:15.396Z,3.02
2023-02-25T14:15:23.257Z,3.15
2023-02-25T14:20:47.988Z,3.12
2023-02-25T14:26:23.278Z,3.02
2023-02-25T14:31:28.786Z,3.15
2023-02-25T14:36:41.292Z,3.20
2023-02-25T14:42:14.681Z,3.24
2023-02-25T14:47:33.192Z,3.16
2023-02-25T14:53:15.213Z,3.19
2023-02-25T14:58:20.452Z,3.08
2023-02-25T15:03:26.342Z,3.08
2023-02-25T15:09:01.757Z,3.09
2023-02-25T15:14:25.935Z,3.12
2023-02-25T15:20:16.513Z,3.22
2023-02-25T15:25:22.103Z,3.16
2023-02-25T15:30:27.179Z,3.27
2023-02-25T15:35:35.847Z,3.36
2023-02-25T15:40:45.499Z,3.33
2023-02-25T15:45:49.610Z,3.23
2023-02-25T15:50:53.523Z,3.21
2023-02-25T15:56:05.239Z,3.35
2023-02-25T16:01:07.841Z,3.36
2023-02-25T16:06:22.259Z,3.40
2023-02-25T16:11:27.896Z,3.50
2023-02-25T16:16:34.277Z,3.60
2023-02-25T16:21:49.034Z,3.46
2023-02-25T16:26:54.492Z,3.55
2023-02-25T16:32:20.459Z,3.67
2023-02-25T16:37:57.389Z,3.64
2023-02-25T16:43:00.607Z,3.68
2023-02-25T16:48:07.873Z,3.70
2023-02-25T16:53:19.832Z,3.65
2023-02-25T16:58:25.940Z,3.73
2023-02-25T17:03:33.269Z,3.68
2023-02-25T17:08:37.982Z,3.73
2023-02-25T17:13:45.243Z,3.72
2023-02-25T17:18:51.032Z,3.74
2023-02-25T17:23:54.023Z,3.90
2023-02-25T17:28:59.111Z,3.88
2023-02-25T17:34:04.436Z,3.95
2023-02-25T17:39:14.732Z,3.92
2023-02-25T17:44:35.464Z,3.97
2023-02-25T17:49:39.328Z,3.96
2023-02-25T17:54:47.439Z,3.91
2023-02-25T17:59:53.728Z,3.87
2023-02-25T18:05:22.490Z,3.86
2023-02-25T18:10:34.188Z,3.80
2023-02-25T18:15:38.123Z,3.70
2023-02-25T18:20:42.477Z,3.65
2023-02-25T18:26:19.630Z,3.61
2023-02-25T18:31:23.043Z,3.63
2023-02-25T18:36:28.853Z,3.60
2023-02-25T18:41:31.295Z,3.60
2023-02-25T18:46:33.839Z,3.57
2023-02-25T18:51:36.622Z,3.42
2023-02-25T18:56:39.123Z,3.45
2023-02-25T19:01:41.795Z,3.53
2023-02-25T19:06:44.457Z,3.43
2023-02-25T19:11:47.303Z,3.45
2023-02-25T19:16:51.190Z,3.33
2023-02-25T19:21:55.843Z,3.27
2023-02-25T19:27:00.595Z,3.37
2023-02-25T19:32:03.952Z,3.38
2023-02-25T19:37:06.509Z,3.43
2023-02-25T19:42:10.337Z,3.41
2023-02-25T19:47:14.928Z,3.33
2023-02-25T19:52:18.156Z,3.24
2023-02-25T19:57:23.440Z,3.19
2023-02-25T20:02:26.073Z,3.19
2023-02-25T20:07:28.627Z,3.37
2023-02-25T20:12:31.862Z,3.21
2023-02-25T20:17:37.138Z,3.14
2023-02-25T20:22:40.407Z,3.19
2023-02-25T20:27:43.826Z,3.29
2023-02-25T20:32:46.454Z,3.14
2023-02-25T20:38:23.462Z,3.27
2023-02-25T20:43:26.186Z,3.21
2023-02-25T20:48:33.262Z,3.22
2023-02-25T20:53:35.938Z,3.24
2023-02-25T20:58:38.602Z,3.28
2023-02-25T21:03:41.169Z,3.32
2023-02-25T21:08:45.133Z,3.26
2023-02-25T21:13:48.344Z,3.30
2023-02-25T21:18:51.222Z,3.26
2023-02-25T21:23:53.906Z,3.24
2023-02-25T21:28:56.354Z,3.21
2023-02-25T21:34:03.186Z,3.26
2023-02-25T21:39:07.139Z,3.18
2023-02-25T21:44:10.086Z,3.23
2023-02-25T21:49:12.774Z,3.15
2023-02-25T21:54:15.418Z,3.29
2023-02-25T21:59:17.979Z,3.34
2023-02-25T22:04:20.669Z,3.29
2023-02-25T22:09:23.315Z,3.34
2023-02-25T22:14:26.418Z,3.37
2023-02-25T22:19:29.000Z,3.38
2023-02-25T22:24:31.816Z,3.28
2023-02-25T22:29:34.267Z,3.32
2023-02-25T22:34:36.768Z,3.24
2023-02-25T22:39:39.230Z,3.33
2023-02-25T22:44:41.754Z,3.27
2023-02-25T22:49:44.166Z,3.32
2023-02-25T22:54:46.756Z,3.20
2023-02-25T22:59:49.326Z,3.20
2023-02-25T23:04:51.840Z,3.27
2023-02-25T23:09:54.328Z,3.25
2023-02-25T23:14:57.146Z,3.24
2023-02-25T23:20:00.526Z,3.15
2023-02-25T23:25:03.691Z,3.22
2023-02-25T23:30:06.967Z,3.24
2023-02-25T23:35:11.436Z,3.20
2023-02-25T23:40:14.385Z,3.17
2023-02-25T23:45:17.272Z,3.05
2023-02-25T23:50:19.813Z,3.08
2023-02-25T23:55:23.191Z,2.98
